createdAt,value
2022-08-26T00:01:45.140Z,47.88
2022-08-26T00:04:12.674Z,48.13
2022-08-26T00:06:42.501Z,47.98
2022-08-26T00:09:16.020Z,48.02
2022-08-26T00:11:44.761Z,48.09
2022-08-26T00:14:13.880Z,47.86
2022-08-26T00:16:47.495Z,47.98
2022-08-26T00:19:20.348Z,47.96
2022-08-26T00:21:48.863Z,48.07
2022-08-26T00:24:18.055Z,47.98
2022-08-26T00:26:44.862Z,48.17
2022-08-26T00:29:12.269Z,48.10
2022-08-26T00:31:39.232Z,47.93
2022-08-26T00:34:06.778Z,47.94
2022-08-26T00:36:36.160Z,47.94
2022-08-26T00:39:04.367Z,48.04
2022-08-26T00:41:30.923Z,47.96
2022-08-26T00:43:57.479Z,48.04
2022-08-26T00:46:30.051Z,48.13
2022-08-26T00:49:30.304Z,48.03
2022-08-26T00:52:01.074Z,48.00
2022-08-26T00:54:33.308Z,47.79
2022-08-26T00:57:08.602Z,47.98
2022-08-26T00:59:45.374Z,47.94
2022-08-26T01:02:18.054Z,47.76
2022-08-26T01:04:48.589Z,48.03
2022-08-26T01:07:21.754Z,48.11
2022-08-26T01:09:48.430Z,48.10
2022-08-26T01:12:15.851Z,47.90
2022-08-26T01:14:49.534Z,47.98
2022-08-26T01:17:16.274Z,47.85
2022-08-26T01:20:06.583Z,48.03
2022-08-26T01:22:45.491Z,47.95
2022-08-26T01:25:12.908Z,48.07
2022-08-26T01:27:39.517Z,47.85
2022-08-26T01:30:06.810Z,47.93
2022-08-26T01:32:34.611Z,47.86
2022-08-26T01:35:02.056Z,48.10
2022-08-26T01:37:34.755Z,47.84
2022-08-26T01:40:01.435Z,47.97
2022-08-26T01:42:28.652Z,47.99
2022-08-26T01:45:05.784Z,48.07
2022-08-26T01:47:35.550Z,47.97
2022-08-26T01:50:05.986Z,48.11
2022-08-26T01:52:35.744Z,47.96
2022-08-26T01:55:02.579Z,48.01
2022-08-26T01:57:29.530Z,48.09
2022-08-26T02:00:01.535Z,47.99
2022-08-26T02:02:28.243Z,47.98
2022-08-26T02:05:01.727Z,47.92
2022-08-26T02:07:29.445Z,47.91
2022-08-26T02:09:56.855Z,47.95
2022-08-26T02:12:23.723Z,47.88
2022-08-26T02:14:58.070Z,48.07
2022-08-26T02:17:31.306Z,47.99
2022-08-26T02:19:58.156Z,48.15
2022-08-26T02:22:24.876Z,48.13
2022-08-26T02:25:00.798Z,48.20
2022-08-26T02:27:32.911Z,48.09
2022-08-26T02:30:17.786Z,48.15
2022-08-26T02:32:44.914Z,47.81
2022-08-26T02:35:13.989Z,47.95
2022-08-26T02:37:48.051Z,47.69
2022-08-26T02:40:21.680Z,47.86
2022-08-26T02:42:48.627Z,47.76
2022-08-26T02:45:16.338Z,47.78
2022-08-26T02:47:50.775Z,48.10
2022-08-26T02:50:17.344Z,47.76
2022-08-26T02:52:44.276Z,47.73
2022-08-26T02:55:11.086Z,47.83
2022-08-26T02:57:37.747Z,48.02
2022-08-26T03:00:07.631Z,47.88
2022-08-26T03:02:34.419Z,48.08
2022-08-26T03:05:02.033Z,47.90
2022-08-26T03:07:29.741Z,47.87
2022-08-26T03:09:56.849Z,47.96
2022-08-26T03:12:24.064Z,48.05
2022-08-26T03:14:52.908Z,47.80
2022-08-26T03:17:19.565Z,47.89
2022-08-26T03:19:46.107Z,47.91
2022-08-26T03:22:12.695Z,47.98
2022-08-26T03:24:41.562Z,47.82
2022-08-26T03:27:13.355Z,47.79
2022-08-26T03:29:59.740Z,47.78
2022-08-26T03:32:26.928Z,47.97
2022-08-26T03:34:54.129Z,47.98
2022-08-26T03:37:21.683Z,47.86
2022-08-26T03:39:48.978Z,47.77
2022-08-26T03:42:15.939Z,47.96
2022-08-26T03:44:42.520Z,47.65
2022-08-26T03:47:09.428Z,47.94
2022-08-26T03:49:36.164Z,47.90
2022-08-26T03:52:04.599Z,47.96
2022-08-26T03:54:32.351Z,47.93
2022-08-26T03:56:58.903Z,47.93
2022-08-26T03:59:25.815Z,47.93
2022-08-26T04:01:52.484Z,47.94
2022-08-26T04:04:22.724Z,48.09
2022-08-26T04:06:58.216Z,48.02
2022-08-26T04:09:25.682Z,48.13
2022-08-26T04:11:52.251Z,47.72
2022-08-26T04:14:21.358Z,47.90
2022-08-26T04:16:48.765Z,47.89
2022-08-26T04:19:16.824Z,47.91
2022-08-26T04:21:44.122Z,47.85
2022-08-26T04:24:12.167Z,48.20
2022-08-26T04:26:42.845Z,47.87
2022-08-26T04:29:18.153Z,47.85
2022-08-26T04:31:46.042Z,47.80
2022-08-26T04:34:14.189Z,48.06
2022-08-26T04:36:41.912Z,47.81
2022-08-26T04:39:12.090Z,47.98
2022-08-26T04:41:40.071Z,47.77
2022-08-26T04:44:06.872Z,48.01
2022-08-26T04:46:33.503Z,48.01
2022-08-26T04:49:00.153Z,47.78
2022-08-26T04:51:29.781Z,47.98
2022-08-26T04:53:59.666Z,47.67
2022-08-26T04:56:29.071Z,47.90
2022-08-26T04:58:56.497Z,47.80
2022-08-26T05:01:23.931Z,47.83
2022-08-26T05:03:50.912Z,47.93
2022-08-26T05:06:19.414Z,47.98
2022-08-26T05:08:46.091Z,47.79
2022-08-26T05:11:13.538Z,47.77
2022-08-26T05:13:40.474Z,47.88
2022-08-26T05:16:11.568Z,47.62
2022-08-26T05:18:39.625Z,47.74
2022-08-26T05:21:07.176Z,47.72
2022-08-26T05:23:36.027Z,47.63
2022-08-26T05:26:07.030Z,47.68
2022-08-26T05:28:34.996Z,47.80
2022-08-26T05:31:02.086Z,47.30
2022-08-26T05:33:29.371Z,47.45
2022-08-26T05:35:55.842Z,47.58
2022-08-26T05:38:23.595Z,47.98
2022-08-26T05:40:52.881Z,47.45
2022-08-26T05:43:20.387Z,47.59
2022-08-26T05:45:48.398Z,47.37
2022-08-26T05:48:17.819Z,47.17
2022-08-26T05:50:47.415Z,47.32
2022-08-26T05:53:17.486Z,46.95
2022-08-26T05:55:48.486Z,47.10
2022-08-26T05:58:17.429Z,47.46
2022-08-26T06:00:45.154Z,47.64
2022-08-26T06:03:11.858Z,47.90
2022-08-26T06:05:40.036Z,47.77
2022-08-26T06:08:19.215Z,48.37
2022-08-26T06:10:55.125Z,48.24
2022-08-26T06:13:25.554Z,47.71
2022-08-26T06:15:52.731Z,47.89
2022-08-26T06:18:23.274Z,47.87
2022-08-26T06:20:57.934Z,48.03
2022-08-26T06:23:45.329Z,48.01
2022-08-26T06:26:13.656Z,48.03
2022-08-26T06:28:40.208Z,48.26
2022-08-26T06:31:10.598Z,48.13
2022-08-26T06:33:37.792Z,48.01
2022-08-26T06:36:06.715Z,48.25
2022-08-26T06:38:33.539Z,48.28
2022-08-26T06:41:00.953Z,48.41
2022-08-26T06:43:29.574Z,48.31
2022-08-26T06:46:04.999Z,48.31
2022-08-26T06:48:32.111Z,48.39
2022-08-26T06:51:16.682Z,48.50
2022-08-26T06:53:46.834Z,48.29
2022-08-26T06:56:16.311Z,48.18
2022-08-26T06:58:43.535Z,48.30
2022-08-26T07:01:42.824Z,48.23
2022-08-26T07:04:11.436Z,48.33
2022-08-26T07:06:40.567Z,48.23
2022-08-26T07:09:09.854Z,48.09
2022-08-26T07:11:38.861Z,48.10
2022-08-26T07:14:06.734Z,48.38
2022-08-26T07:16:33.822Z,48.16
2022-08-26T07:19:03.619Z,48.37
2022-08-26T07:21:40.456Z,48.42
2022-08-26T07:24:08.000Z,48.53
2022-08-26T07:26:34.832Z,48.15
2022-08-26T07:29:02.027Z,48.31
2022-08-26T07:31:36.079Z,48.39
2022-08-26T07:34:07.617Z,48.32
2022-08-26T07:36:34.594Z,48.44
2022-08-26T07:39:01.197Z,48.49
2022-08-26T07:43:59.763Z,48.52
2022-08-26T07:46:26.966Z,48.55
2022-08-26T07:48:54.154Z,48.73
2022-08-26T07:51:21.938Z,48.69
2022-08-26T07:53:52.325Z,48.60
2022-08-26T07:56:20.028Z,48.62
2022-08-26T07:58:51.361Z,48.60
2022-08-26T08:01:23.696Z,48.83
2022-08-26T08:03:51.752Z,48.88
2022-08-26T08:06:27.366Z,48.69
2022-08-26T08:08:55.629Z,48.46
2022-08-26T08:11:23.066Z,48.40
2022-08-26T08:13:56.237Z,48.56
2022-08-26T08:16:24.696Z,48.43
2022-08-26T08:18:51.362Z,48.26
2022-08-26T08:21:21.565Z,48.32
2022-08-26T08:23:51.418Z,48.10
2022-08-26T08:26:18.095Z,48.42
2022-08-26T08:28:46.252Z,48.55
2022-08-26T08:31:57.056Z,49.16
2022-08-26T08:34:19.190Z,52.03
2022-08-26T08:36:48.179Z,53.32
2022-08-26T08:39:14.731Z,51.87
2022-08-26T08:41:52.847Z,51.43
2022-08-26T08:47:04.123Z,50.32
2022-08-26T08:49:32.824Z,50.30
2022-08-26T08:52:02.264Z,50.11
2022-08-26T08:54:32.464Z,50.03
2022-08-26T08:57:12.857Z,49.92
2022-08-26T08:59:58.625Z,49.72
2022-08-26T09:02:58.728Z,49.66
2022-08-26T09:05:34.774Z,49.60
2022-08-26T09:08:11.132Z,49.45
2022-08-26T09:10:47.065Z,49.58
2022-08-26T09:13:16.362Z,49.30
2022-08-26T09:15:59.067Z,49.30
2022-08-26T09:18:28.297Z,49.42
2022-08-26T09:21:04.438Z,49.37
2022-08-26T09:23:34.091Z,48.97
2022-08-26T09:26:18.120Z,49.14
2022-08-26T09:28:48.528Z,49.32
2022-08-26T09:31:20.051Z,48.87
2022-08-26T09:33:46.975Z,49.24
2022-08-26T09:36:34.445Z,49.03
2022-08-26T09:39:11.695Z,49.03
2022-08-26T09:41:38.268Z,49.03
2022-08-26T09:44:23.055Z,49.12
2022-08-26T09:46:52.630Z,49.01
2022-08-26T09:49:36.266Z,49.06
2022-08-26T09:52:14.178Z,48.92
2022-08-26T09:54:42.356Z,48.77
2022-08-26T09:57:21.873Z,48.94
2022-08-26T09:59:49.540Z,48.72
2022-08-26T10:02:34.534Z,48.65
2022-08-26T10:05:09.567Z,48.50
2022-08-26T10:07:41.954Z,48.59
2022-08-26T10:10:22.070Z,48.75
2022-08-26T10:13:12.536Z,48.79
2022-08-26T10:15:51.196Z,48.56
2022-08-26T10:18:34.105Z,48.41
2022-08-26T10:21:04.003Z,48.50
2022-08-26T10:26:32.352Z,48.44
2022-08-26T10:29:03.780Z,48.41
2022-08-26T10:31:38.159Z,48.19
2022-08-26T10:34:07.156Z,48.26
2022-08-26T10:37:13.788Z,48.35
2022-08-26T10:39:59.180Z,48.45
2022-08-26T10:42:37.634Z,48.48
2022-08-26T10:45:19.813Z,48.44
2022-08-26T10:47:50.287Z,48.32
2022-08-26T10:50:18.155Z,48.50
2022-08-26T10:53:32.622Z,48.49
2022-08-26T10:56:05.506Z,48.40
2022-08-26T10:59:01.727Z,48.35
2022-08-26T11:01:55.189Z,48.54
2022-08-26T11:04:25.597Z,48.44
2022-08-26T11:07:31.718Z,48.54
2022-08-26T11:10:19.442Z,48.94
2022-08-26T11:12:49.242Z,48.14
2022-08-26T11:15:24.583Z,47.65
2022-08-26T11:17:51.427Z,46.51
2022-08-26T11:20:24.271Z,46.90
2022-08-26T11:22:52.144Z,46.10
2022-08-26T11:25:29.650Z,46.55
2022-08-26T11:28:00.604Z,45.98
2022-08-26T11:30:38.193Z,46.16
2022-08-26T11:33:08.214Z,45.27
2022-08-26T11:35:34.862Z,44.97
2022-08-26T11:38:20.195Z,45.20
2022-08-26T11:40:58.004Z,45.49
2022-08-26T11:43:29.884Z,45.55
2022-08-26T11:46:09.200Z,45.69
2022-08-26T11:48:41.856Z,45.57
2022-08-26T11:51:12.026Z,45.69
2022-08-26T11:53:44.663Z,45.99
2022-08-26T11:56:34.620Z,45.83
2022-08-26T11:59:15.582Z,45.92
2022-08-26T12:01:46.335Z,46.13
2022-08-26T12:04:26.425Z,46.04
2022-08-26T12:06:53.451Z,46.03
2022-08-26T12:09:26.667Z,46.00
2022-08-26T12:12:08.603Z,46.17
2022-08-26T12:14:39.676Z,46.27
2022-08-26T12:17:17.463Z,46.20
2022-08-26T12:19:45.903Z,46.26
2022-08-26T12:22:24.632Z,46.17
2022-08-26T12:24:58.624Z,46.36
2022-08-26T12:27:28.766Z,46.13
2022-08-26T12:30:13.943Z,46.35
2022-08-26T12:32:57.667Z,45.97
2022-08-26T12:35:25.313Z,46.27
2022-08-26T12:37:54.056Z,46.20
2022-08-26T12:40:41.605Z,46.36
2022-08-26T12:43:09.526Z,46.21
2022-08-26T12:45:54.794Z,46.18
2022-08-26T12:48:29.834Z,46.40
2022-08-26T12:50:57.842Z,46.19
2022-08-26T12:53:30.318Z,46.13
2022-08-26T12:56:05.066Z,46.36
2022-08-26T12:58:39.420Z,46.20
2022-08-26T13:01:09.030Z,46.28
2022-08-26T13:03:38.687Z,46.33
2022-08-26T13:06:29.447Z,46.66
2022-08-26T13:08:57.925Z,46.25
2022-08-26T13:11:34.751Z,46.51
2022-08-26T13:14:07.779Z,46.44
2022-08-26T13:16:35.747Z,46.51
2022-08-26T13:19:05.848Z,46.52
2022-08-26T13:21:55.446Z,46.70
2022-08-26T13:24:30.112Z,46.36
2022-08-26T13:26:56.691Z,46.66
2022-08-26T13:29:23.346Z,46.76
2022-08-26T13:31:50.688Z,46.38
2022-08-26T13:34:19.976Z,46.72
2022-08-26T13:36:54.125Z,46.76
2022-08-26T13:39:22.387Z,46.54
2022-08-26T13:41:49.298Z,46.61
2022-08-26T13:44:16.003Z,46.42
2022-08-26T13:46:42.750Z,46.38
2022-08-26T13:49:10.119Z,46.36
2022-08-26T13:51:37.651Z,46.55
2022-08-26T13:54:05.348Z,46.53
2022-08-26T13:56:32.795Z,46.83
2022-08-26T13:59:01.176Z,46.70
2022-08-26T14:01:30.422Z,46.53
2022-08-26T14:03:57.278Z,46.40
2022-08-26T14:06:25.212Z,46.99
2022-08-26T14:08:51.838Z,47.04
2022-08-26T14:11:18.726Z,46.91
2022-08-26T14:13:45.278Z,46.58
2022-08-26T14:16:19.471Z,46.74
2022-08-26T14:18:50.515Z,46.61
2022-08-26T14:21:17.404Z,46.55
2022-08-26T14:23:44.010Z,46.33
2022-08-26T14:26:14.345Z,46.04
2022-08-26T14:28:56.470Z,46.16
2022-08-26T14:31:23.869Z,46.48
2022-08-26T14:33:50.698Z,46.24
2022-08-26T14:36:29.324Z,46.24
2022-08-26T14:39:00.158Z,46.30
2022-08-26T14:41:27.160Z,46.39
2022-08-26T14:44:01.207Z,46.31
2022-08-26T14:46:31.670Z,46.35
2022-08-26T14:49:00.985Z,46.21
2022-08-26T14:51:28.848Z,46.13
2022-08-26T14:54:13.474Z,46.46
2022-08-26T14:56:51.261Z,46.27
2022-08-26T14:59:21.423Z,46.49
2022-08-26T15:01:48.105Z,46.44
2022-08-26T15:04:15.758Z,46.25
2022-08-26T15:06:42.483Z,46.17
2022-08-26T15:09:09.144Z,46.16
2022-08-26T15:11:35.773Z,46.34
2022-08-26T15:14:02.805Z,46.25
2022-08-26T15:16:29.593Z,46.26
2022-08-26T15:18:57.079Z,45.99
2022-08-26T15:21:25.652Z,46.46
2022-08-26T15:23:53.366Z,46.32
2022-08-26T15:26:21.806Z,46.38
2022-08-26T15:28:48.716Z,46.36
2022-08-26T15:31:15.609Z,46.37
2022-08-26T15:33:42.701Z,46.37
2022-08-26T15:36:09.718Z,46.53
2022-08-26T15:38:40.011Z,46.36
2022-08-26T15:41:08.746Z,46.42
2022-08-26T15:43:36.891Z,46.55
2022-08-26T15:46:03.775Z,46.06
2022-08-26T15:48:30.360Z,46.35
2022-08-26T15:51:00.500Z,46.40
2022-08-26T15:53:30.403Z,46.38
2022-08-26T15:55:58.498Z,46.56
2022-08-26T15:58:27.164Z,46.32
2022-08-26T16:00:55.791Z,46.41
2022-08-26T16:03:22.644Z,46.56
2022-08-26T16:05:49.403Z,46.83
2022-08-26T16:08:16.188Z,46.43
2022-08-26T16:10:49.965Z,46.68
2022-08-26T16:13:18.959Z,46.47
2022-08-26T16:15:46.408Z,46.67
2022-08-26T16:18:13.898Z,46.59
2022-08-26T16:20:55.195Z,46.64
2022-08-26T16:23:36.014Z,46.52
2022-08-26T16:26:15.233Z,46.77
2022-08-26T16:28:42.236Z,46.47
2022-08-26T16:31:10.640Z,46.46
2022-08-26T16:33:40.707Z,46.67
2022-08-26T16:36:08.348Z,46.30
2022-08-26T16:38:36.259Z,46.35
2022-08-26T16:41:03.739Z,46.43
2022-08-26T16:43:30.335Z,46.54
2022-08-26T16:45:57.428Z,46.45
2022-08-26T16:48:24.307Z,46.80
2022-08-26T16:50:51.689Z,46.64
2022-08-26T16:53:19.048Z,46.84
2022-08-26T16:55:50.466Z,46.99
2022-08-26T16:58:18.483Z,46.95
2022-08-26T17:00:45.504Z,46.86
2022-08-26T17:03:12.476Z,46.91
2022-08-26T17:05:40.207Z,47.03
2022-08-26T17:08:07.283Z,46.86
2022-08-26T17:10:33.923Z,46.72
2022-08-26T17:13:00.716Z,46.86
2022-08-26T17:15:27.729Z,46.69
2022-08-26T17:17:54.766Z,46.72
2022-08-26T17:20:23.407Z,46.85
2022-08-26T17:22:52.413Z,46.78
2022-08-26T17:25:31.661Z,47.16
2022-08-26T17:27:59.171Z,46.80
2022-08-26T17:30:29.820Z,46.94
2022-08-26T17:32:57.615Z,46.92
2022-08-26T17:35:24.879Z,46.88
2022-08-26T17:37:51.998Z,46.63
2022-08-26T17:40:21.951Z,46.76
2022-08-26T17:42:48.833Z,46.72
2022-08-26T17:45:16.430Z,46.69
2022-08-26T17:47:44.063Z,47.14
2022-08-26T17:50:13.260Z,46.78
2022-08-26T17:52:41.211Z,46.74
2022-08-26T17:55:09.767Z,47.03
2022-08-26T17:57:40.924Z,47.00
2022-08-26T18:00:13.699Z,46.87
2022-08-26T18:02:40.652Z,46.76
2022-08-26T18:05:08.399Z,47.16
2022-08-26T18:07:43.725Z,47.28
2022-08-26T18:10:13.299Z,47.22
2022-08-26T18:12:40.988Z,47.27
2022-08-26T18:15:09.493Z,47.24
2022-08-26T18:17:36.149Z,47.51
2022-08-26T18:20:03.076Z,47.57
2022-08-26T18:22:30.147Z,47.49
2022-08-26T18:24:59.084Z,47.28
2022-08-26T18:27:26.508Z,47.48
2022-08-26T18:29:53.164Z,47.33
2022-08-26T18:32:19.679Z,47.49
2022-08-26T18:34:46.218Z,47.35
2022-08-26T18:39:45.453Z,47.40
2022-08-26T18:42:12.823Z,47.36
2022-08-26T18:44:39.371Z,47.57
2022-08-26T18:47:06.072Z,47.35
2022-08-26T18:49:32.604Z,47.30
2022-08-26T18:51:59.146Z,47.37
2022-08-26T18:54:25.986Z,47.13
2022-08-26T18:56:52.944Z,47.04
2022-08-26T18:59:19.630Z,47.36
2022-08-26T19:01:53.419Z,47.17
2022-08-26T19:04:20.122Z,47.25
2022-08-26T19:06:49.367Z,47.16
2022-08-26T19:09:17.911Z,47.11
2022-08-26T19:11:45.660Z,47.34
2022-08-26T19:14:15.485Z,47.43
2022-08-26T19:16:45.143Z,47.35
2022-08-26T19:19:12.571Z,47.46
2022-08-26T19:21:39.749Z,47.42
2022-08-26T19:24:15.219Z,47.63
2022-08-26T19:26:47.515Z,47.45
2022-08-26T19:29:15.401Z,47.65
2022-08-26T19:31:44.075Z,47.42
2022-08-26T19:34:13.015Z,47.72
2022-08-26T19:36:43.050Z,47.67
2022-08-26T19:39:12.198Z,47.58
2022-08-26T19:41:39.840Z,47.95
2022-08-26T19:44:11.007Z,47.59
2022-08-26T19:49:06.075Z,47.75
2022-08-26T19:51:33.886Z,47.95
2022-08-26T19:54:01.238Z,47.46
2022-08-26T19:56:28.657Z,47.76
2022-08-26T19:58:56.059Z,47.65
2022-08-26T20:01:23.191Z,47.49
2022-08-26T20:03:50.173Z,47.49
2022-08-26T20:06:17.548Z,47.45
2022-08-26T20:08:44.656Z,47.59
2022-08-26T20:11:17.447Z,47.69
2022-08-26T20:13:46.679Z,47.71
2022-08-26T20:16:14.014Z,47.72
2022-08-26T20:18:59.644Z,47.72
2022-08-26T20:21:26.851Z,47.63
2022-08-26T20:23:54.810Z,48.16
2022-08-26T20:26:21.343Z,47.82
2022-08-26T20:28:47.899Z,47.86
2022-08-26T20:31:18.551Z,47.90
2022-08-26T20:33:46.609Z,47.87
2022-08-26T20:36:15.081Z,47.91
2022-08-26T20:38:41.661Z,47.90
2022-08-26T20:41:08.463Z,48.02
2022-08-26T20:43:35.120Z,48.05
2022-08-26T20:46:01.760Z,48.08
2022-08-26T20:48:28.359Z,47.80
2022-08-26T20:50:59.955Z,47.59
2022-08-26T20:53:28.708Z,47.99
2022-08-26T20:55:59.475Z,47.86
2022-08-26T20:58:26.011Z,47.75
2022-08-26T21:00:52.678Z,47.90
2022-08-26T21:03:19.256Z,47.78
2022-08-26T21:05:45.879Z,47.87
2022-08-26T21:08:13.179Z,48.07
2022-08-26T21:10:39.815Z,48.26
2022-08-26T21:13:07.414Z,47.95
2022-08-26T21:15:35.161Z,47.83
2022-08-26T21:18:01.779Z,47.82
2022-08-26T21:20:28.349Z,47.61
2022-08-26T21:22:55.055Z,47.50
2022-08-26T21:25:21.767Z,47.63
2022-08-26T21:27:48.280Z,47.61
2022-08-26T21:30:15.910Z,47.72
2022-08-26T21:32:42.955Z,47.73
2022-08-26T21:35:09.994Z,47.83
2022-08-26T21:37:36.639Z,47.97
2022-08-26T21:40:05.300Z,48.14
2022-08-26T21:42:33.423Z,48.09
2022-08-26T21:45:01.119Z,48.07
2022-08-26T21:47:28.174Z,48.14
2022-08-26T21:49:54.764Z,48.00
2022-08-26T21:52:21.480Z,48.11
2022-08-26T21:54:49.454Z,48.30
2022-08-26T21:57:16.677Z,48.13
2022-08-26T21:59:43.183Z,48.01
2022-08-26T22:02:10.950Z,48.20
2022-08-26T22:04:37.685Z,48.06
2022-08-26T22:07:04.296Z,48.30
2022-08-26T22:09:31.676Z,48.32
2022-08-26T22:11:59.254Z,48.05
2022-08-26T22:14:30.873Z,47.97
2022-08-26T22:16:59.405Z,47.95
2022-08-26T22:19:26.096Z,48.42
2022-08-26T22:21:54.614Z,48.59
2022-08-26T22:24:23.783Z,48.51
2022-08-26T22:26:50.925Z,48.62
2022-08-26T22:29:18.776Z,48.72
2022-08-26T22:31:46.046Z,48.80
2022-08-26T22:34:15.654Z,48.88
2022-08-26T22:36:44.415Z,48.86
2022-08-26T22:39:15.974Z,48.93
2022-08-26T22:41:43.654Z,48.69
2022-08-26T22:44:11.854Z,48.81
2022-08-26T22:46:40.289Z,48.58
2022-08-26T22:49:09.431Z,49.28
2022-08-26T22:51:36.027Z,49.13
2022-08-26T22:54:02.622Z,49.22
2022-08-26T22:56:29.968Z,49.17
2022-08-26T22:58:56.535Z,49.14
2022-08-26T23:01:23.863Z,49.66
2022-08-26T23:03:50.742Z,49.00
2022-08-26T23:06:17.394Z,49.51
2022-08-26T23:08:46.290Z,49.40
2022-08-26T23:11:14.866Z,49.67
2022-08-26T23:13:41.433Z,49.43
2022-08-26T23:16:10.962Z,49.51
2022-08-26T23:18:38.492Z,49.74
2022-08-26T23:21:06.050Z,49.56
2022-08-26T23:23:32.875Z,49.30
2022-08-26T23:26:00.216Z,49.13
2022-08-26T23:28:28.861Z,48.87
2022-08-26T23:30:55.454Z,48.85
2022-08-26T23:33:21.971Z,49.01
2022-08-26T23:35:48.516Z,49.11
2022-08-26T23:38:15.954Z,48.85
2022-08-26T23:40:42.543Z,48.72
2022-08-26T23:43:11.571Z,48.90
2022-08-26T23:45:38.548Z,48.67
2022-08-26T23:48:06.336Z,48.68
2022-08-26T23:50:51.544Z,48.42
2022-08-26T23:53:21.776Z,48.62
2022-08-26T23:55:50.975Z,48.61
2022-08-26T23:58:19.355Z,48.67
